createdAt,value
2023-01-06T00:01:52.546Z,101173.06
2023-01-06T00:05:58.428Z,101168.84
2023-01-06T00:09:59.948Z,101161.22
2023-01-06T00:14:01.677Z,101155.44
2023-01-06T00:18:03.287Z,101148.63
2023-01-06T00:22:05.926Z,101151.22
2023-01-06T00:26:09.440Z,101140.91
2023-01-06T00:30:11.621Z,101135.69
2023-01-06T00:34:13.305Z,101131.28
2023-01-06T00:38:15.694Z,101128.28
2023-01-06T00:42:17.218Z,101140.00
2023-01-06T00:46:19.158Z,101140.88
2023-01-06T00:50:20.874Z,101132.63
2023-01-06T00:54:22.760Z,101136.28
2023-01-06T00:58:24.299Z,101132.06
2023-01-06T01:02:26.031Z,101133.97
2023-01-06T01:06:27.972Z,101134.84
2023-01-06T01:10:29.568Z,101137.53
2023-01-06T01:14:31.190Z,101123.88
2023-01-06T01:18:33.335Z,101122.22
2023-01-06T01:22:35.136Z,101115.28
2023-01-06T01:26:37.066Z,101115.66
2023-01-06T01:30:38.627Z,101113.72
2023-01-06T01:34:40.168Z,101118.66
2023-01-06T01:38:41.882Z,101115.66
2023-01-06T01:42:43.403Z,101118.38
2023-01-06T01:46:45.002Z,101107.53
2023-01-06T01:50:51.814Z,101118.72
2023-01-06T01:54:54.990Z,101114.94
2023-01-06T01:59:12.864Z,101123.84
2023-01-06T02:03:15.545Z,101126.03
2023-01-06T02:07:18.152Z,101123.50
2023-01-06T02:11:19.776Z,101120.59
2023-01-06T02:15:30.275Z,101120.19
2023-01-06T02:20:03.496Z,101123.84
2023-01-06T02:24:26.240Z,101118.00
2023-01-06T02:28:53.279Z,101112.78
2023-01-06T02:33:18.621Z,101114.44
2023-01-06T02:37:48.416Z,101110.16
2023-01-06T02:42:12.609Z,101107.44
2023-01-06T02:46:42.288Z,101114.19
2023-01-06T02:50:56.642Z,101109.09
2023-01-06T02:55:11.653Z,101099.03
2023-01-06T02:59:30.216Z,101100.19
2023-01-06T03:03:35.627Z,101111.28
2023-01-06T03:07:39.368Z,101110.16
2023-01-06T03:11:44.201Z,101106.16
2023-01-06T03:15:45.951Z,101109.19
2023-01-06T03:19:47.702Z,101102.47
2023-01-06T03:23:50.205Z,101096.59
2023-01-06T03:27:51.926Z,101093.13
2023-01-06T03:32:32.790Z,101085.50
2023-01-06T03:36:54.731Z,101079.91
2023-01-06T03:41:23.474Z,101086.03
2023-01-06T03:45:50.686Z,101091.38
2023-01-06T03:50:00.492Z,101085.59
2023-01-06T03:54:15.764Z,101087.53
2023-01-06T03:58:20.158Z,101090.16
2023-01-06T04:02:23.963Z,101080.84
2023-01-06T04:06:26.009Z,101074.63
2023-01-06T04:10:28.274Z,101077.72
2023-01-06T04:14:32.615Z,101076.53
2023-01-06T04:18:36.339Z,101065.16
2023-01-06T04:22:38.127Z,101066.63
2023-01-06T04:26:40.043Z,101062.38
2023-01-06T04:30:42.345Z,101058.94
2023-01-06T04:34:45.130Z,101043.63
2023-01-06T04:38:48.179Z,101042.34
2023-01-06T04:43:04.783Z,101037.19
2023-01-06T04:47:06.353Z,101038.91
2023-01-06T04:51:09.825Z,101042.81
2023-01-06T04:55:11.662Z,101026.81
2023-01-06T04:59:13.187Z,101025.06
2023-01-06T05:03:14.805Z,101022.44
2023-01-06T05:07:16.369Z,101025.00
2023-01-06T05:11:21.021Z,101016.44
2023-01-06T05:15:22.767Z,101031.81
2023-01-06T05:19:24.364Z,101025.81
2023-01-06T05:23:25.963Z,101025.88
2023-01-06T05:27:27.500Z,101031.00
2023-01-06T05:31:29.116Z,101038.84
2023-01-06T05:35:30.933Z,101044.09
2023-01-06T05:39:32.488Z,101060.34
2023-01-06T05:43:36.021Z,101068.09
2023-01-06T05:47:37.651Z,101064.66
2023-01-06T05:51:39.245Z,101067.97
2023-01-06T05:55:40.809Z,101073.09
2023-01-06T05:59:42.356Z,101072.22
2023-01-06T06:03:44.056Z,101075.78
2023-01-06T06:07:51.951Z,101069.78
2023-01-06T06:11:54.638Z,101075.75
2023-01-06T06:16:11.528Z,101069.91
2023-01-06T06:20:13.103Z,101065.63
2023-01-06T06:24:14.738Z,101070.88
2023-01-06T06:28:16.269Z,101076.00
2023-01-06T06:32:17.810Z,101068.31
2023-01-06T06:36:19.551Z,101065.63
2023-01-06T06:40:21.176Z,101074.91
2023-01-06T06:44:22.719Z,101079.91
2023-01-06T06:48:24.359Z,101092.00
2023-01-06T06:52:25.861Z,101110.81
2023-01-06T06:56:27.532Z,101107.88
2023-01-06T07:00:29.195Z,101110.97
2023-01-06T07:04:30.985Z,101117.16
2023-01-06T07:08:35.391Z,101110.31
2023-01-06T07:12:36.928Z,101116.94
2023-01-06T07:16:38.520Z,101116.91
2023-01-06T07:20:40.165Z,101122.44
2023-01-06T07:24:41.659Z,101138.16
2023-01-06T07:28:43.170Z,101143.63
2023-01-06T07:32:44.765Z,101142.94
2023-01-06T07:36:46.354Z,101149.09
2023-01-06T07:40:48.132Z,101156.72
2023-01-06T07:44:49.676Z,101153.28
2023-01-06T07:48:51.207Z,101150.84
2023-01-06T07:52:52.822Z,101149.16
2023-01-06T07:56:54.616Z,101160.09
2023-01-06T08:00:56.168Z,101167.03
2023-01-06T08:04:59.510Z,101166.09
2023-01-06T08:09:02.169Z,101175.88
2023-01-06T08:13:03.682Z,101182.09
2023-01-06T08:17:05.480Z,101170.41
2023-01-06T08:21:09.401Z,101176.97
2023-01-06T08:25:10.999Z,101172.13
2023-01-06T08:29:12.580Z,101173.94
2023-01-06T08:33:14.880Z,101167.97
2023-01-06T08:37:16.533Z,101169.94
2023-01-06T08:41:18.243Z,101164.66
2023-01-06T08:45:19.815Z,101164.00
2023-01-06T08:49:21.459Z,101160.88
2023-01-06T08:53:23.045Z,101167.81
2023-01-06T08:57:24.638Z,101158.44
2023-01-06T09:01:29.294Z,101164.25
2023-01-06T09:05:30.922Z,101168.66
2023-01-06T09:09:32.742Z,101156.06
2023-01-06T09:13:35.343Z,101147.81
2023-01-06T09:17:37.051Z,101133.66
2023-01-06T09:21:38.727Z,101144.56
2023-01-06T09:25:40.329Z,101130.38
2023-01-06T09:29:41.978Z,101131.84
2023-01-06T09:33:43.707Z,101130.50
2023-01-06T09:37:45.476Z,101128.75
2023-01-06T09:41:53.102Z,101138.34
2023-01-06T09:46:01.504Z,101151.88
2023-01-06T09:50:17.307Z,101158.66
2023-01-06T09:54:24.174Z,101163.03
2023-01-06T09:58:32.871Z,101152.88
2023-01-06T10:02:39.773Z,101152.00
2023-01-06T10:06:49.476Z,101142.66
2023-01-06T10:11:02.693Z,101139.00
2023-01-06T10:15:48.557Z,101147.91
2023-01-06T10:20:13.011Z,101140.44
2023-01-06T10:24:31.432Z,101146.56
2023-01-06T10:28:39.078Z,101151.53
2023-01-06T10:32:42.839Z,101154.84
2023-01-06T10:36:46.771Z,101157.94
2023-01-06T10:40:48.603Z,101160.50
2023-01-06T10:44:50.176Z,101175.63
2023-01-06T10:48:52.506Z,101162.50
2023-01-06T10:52:54.221Z,101162.66
2023-01-06T10:57:00.929Z,101159.06
2023-01-06T11:01:10.466Z,101164.63
2023-01-06T11:05:17.486Z,101156.50
2023-01-06T11:09:39.316Z,101148.50
2023-01-06T11:13:46.199Z,101154.50
2023-01-06T11:17:48.579Z,101148.44
2023-01-06T11:21:50.299Z,101140.56
2023-01-06T11:26:02.591Z,101141.78
2023-01-06T11:30:37.932Z,101141.97
2023-01-06T11:34:43.874Z,101139.44
2023-01-06T11:38:52.092Z,101122.91
2023-01-06T11:42:56.331Z,101121.88
2023-01-06T11:47:08.602Z,101108.16
2023-01-06T11:51:10.525Z,101109.84
2023-01-06T11:55:13.510Z,101102.78
2023-01-06T11:59:15.400Z,101108.44
2023-01-06T12:03:21.343Z,101103.28
2023-01-06T12:07:40.825Z,101095.59
2023-01-06T12:11:47.104Z,101084.84
2023-01-06T12:15:57.957Z,101073.56
2023-01-06T12:20:05.874Z,101069.91
2023-01-06T12:24:12.422Z,101083.19
2023-01-06T12:28:17.607Z,101081.78
2023-01-06T12:32:23.168Z,101073.72
2023-01-06T12:36:37.730Z,101079.81
2023-01-06T12:40:58.723Z,101063.47
2023-01-06T12:45:15.142Z,101060.75
2023-01-06T12:49:31.720Z,101075.47
2023-01-06T12:53:41.580Z,101077.72
2023-01-06T12:57:53.353Z,101074.19
2023-01-06T13:02:13.820Z,101077.09
2023-01-06T13:06:27.161Z,101083.03
2023-01-06T13:10:39.690Z,101084.84
2023-01-06T13:15:13.814Z,101088.31
2023-01-06T13:19:34.116Z,101080.97
2023-01-06T13:24:13.044Z,101079.44
2023-01-06T13:28:42.446Z,101088.81
2023-01-06T13:33:15.068Z,101092.63
2023-01-06T13:37:36.821Z,101101.31
2023-01-06T13:41:40.568Z,101100.25
2023-01-06T13:45:48.494Z,101098.22
2023-01-06T13:49:50.518Z,101094.44
2023-01-06T13:53:54.651Z,101097.00
2023-01-06T13:57:58.889Z,101100.47
2023-01-06T14:02:00.544Z,101097.16
2023-01-06T14:06:03.638Z,101109.25
2023-01-06T14:10:27.976Z,101114.16
2023-01-06T14:14:32.907Z,101110.59
2023-01-06T14:18:51.660Z,101102.78
2023-01-06T14:23:21.267Z,101113.66
2023-01-06T14:27:47.710Z,101104.19
2023-01-06T14:31:49.511Z,101115.28
2023-01-06T14:36:00.343Z,101118.78
2023-01-06T14:40:02.238Z,101110.81
2023-01-06T14:44:11.907Z,101115.84
2023-01-06T14:48:18.058Z,101107.09
2023-01-06T14:52:22.948Z,101116.19
2023-01-06T14:56:27.612Z,101108.94
2023-01-06T15:00:33.296Z,101117.38
2023-01-06T15:04:35.381Z,101122.41
2023-01-06T15:08:36.960Z,101113.94
2023-01-06T15:12:40.347Z,101120.16
2023-01-06T15:16:45.695Z,101112.44
2023-01-06T15:20:47.641Z,101115.00
2023-01-06T15:24:49.320Z,101125.28
2023-01-06T15:29:06.561Z,101129.47
2023-01-06T15:33:11.819Z,101128.53
2023-01-06T15:37:24.878Z,101126.03
2023-01-06T15:41:32.646Z,101119.94
2023-01-06T15:45:35.121Z,101125.28
2023-01-06T15:49:38.498Z,101132.22
2023-01-06T15:53:40.044Z,101131.31
2023-01-06T15:57:41.742Z,101126.03
2023-01-06T16:02:03.079Z,101112.88
2023-01-06T16:06:23.875Z,101116.81
2023-01-06T16:10:38.552Z,101110.50
2023-01-06T16:14:43.828Z,101110.41
2023-01-06T16:18:45.851Z,101106.94
2023-01-06T16:22:51.460Z,101105.03
2023-01-06T16:27:02.593Z,101104.03
2023-01-06T16:31:12.855Z,101107.44
2023-01-06T16:35:20.311Z,101120.06
2023-01-06T16:39:21.895Z,101114.59
2023-01-06T16:43:23.425Z,101125.41
2023-01-06T16:47:24.985Z,101126.44
2023-01-06T16:51:28.723Z,101133.50
2023-01-06T16:55:30.306Z,101140.50
2023-01-06T16:59:35.206Z,101143.34
2023-01-06T17:03:37.956Z,101151.19
2023-01-06T17:07:39.551Z,101153.66
2023-01-06T17:11:41.191Z,101152.72
2023-01-06T17:15:42.821Z,101158.66
2023-01-06T17:19:44.382Z,101145.63
2023-01-06T17:23:47.697Z,101149.09
2023-01-06T17:27:49.233Z,101141.44
2023-01-06T17:31:54.958Z,101138.03
2023-01-06T17:35:56.715Z,101140.78
2023-01-06T17:39:58.545Z,101136.44
2023-01-06T17:44:01.447Z,101137.28
2023-01-06T17:48:09.330Z,101134.63
2023-01-06T17:52:13.727Z,101138.16
2023-01-06T17:56:15.512Z,101147.41
2023-01-06T18:00:17.523Z,101144.84
2023-01-06T18:04:19.156Z,101151.72
2023-01-06T18:08:21.460Z,101142.03
2023-01-06T18:12:23.180Z,101144.09
2023-01-06T18:16:29.767Z,101134.97
2023-01-06T18:20:31.518Z,101135.59
2023-01-06T18:24:37.254Z,101151.72
2023-01-06T18:28:38.879Z,101147.31
2023-01-06T18:32:42.307Z,101157.44
2023-01-06T18:36:45.212Z,101159.00
2023-01-06T18:40:46.792Z,101153.19
2023-01-06T18:44:49.181Z,101147.53
2023-01-06T18:48:50.793Z,101147.88
2023-01-06T18:52:54.099Z,101155.63
2023-01-06T18:56:55.842Z,101154.88
2023-01-06T19:01:00.350Z,101159.28
2023-01-06T19:05:09.427Z,101162.66
2023-01-06T19:09:20.171Z,101165.41
2023-01-06T19:13:27.852Z,101163.88
2023-01-06T19:17:37.001Z,101149.50
2023-01-06T19:21:38.724Z,101154.84
2023-01-06T19:25:46.778Z,101161.72
2023-01-06T19:29:48.392Z,101169.47
2023-01-06T19:34:00.661Z,101164.22
2023-01-06T19:38:17.641Z,101161.59
2023-01-06T19:42:26.827Z,101155.59
2023-01-06T19:46:29.935Z,101159.81
2023-01-06T19:50:31.619Z,101154.56
2023-01-06T19:54:39.696Z,101148.56
2023-01-06T19:58:41.447Z,101146.88
2023-01-06T20:02:45.306Z,101146.00
2023-01-06T20:06:47.170Z,101149.44
2023-01-06T20:10:48.855Z,101157.22
2023-01-06T20:14:50.429Z,101153.81
2023-01-06T20:18:52.060Z,101158.94
2023-01-06T20:22:53.690Z,101151.25
2023-01-06T20:26:55.441Z,101147.06
2023-01-06T20:30:57.007Z,101151.34
2023-01-06T20:34:58.637Z,101149.25
2023-01-06T20:39:00.763Z,101138.66
2023-01-06T20:43:02.417Z,101147.06
2023-01-06T20:47:04.032Z,101146.97
2023-01-06T20:51:05.772Z,101154.75
2023-01-06T20:55:08.116Z,101153.78
2023-01-06T20:59:12.331Z,101140.94
2023-01-06T21:03:13.982Z,101140.84
2023-01-06T21:07:15.572Z,101139.09
2023-01-06T21:11:17.107Z,101140.84
2023-01-06T21:15:18.953Z,101133.25
2023-01-06T21:19:20.596Z,101127.69
2023-01-06T21:23:22.159Z,101121.56
2023-01-06T21:27:23.983Z,101125.41
2023-01-06T21:31:25.527Z,101128.97
2023-01-06T21:35:27.164Z,101123.63
2023-01-06T21:39:28.838Z,101127.97
2023-01-06T21:43:30.501Z,101119.59
2023-01-06T21:47:32.178Z,101122.38
2023-01-06T21:51:34.969Z,101125.81
2023-01-06T21:55:36.987Z,101135.38
2023-01-06T21:59:38.690Z,101127.69
2023-01-06T22:03:40.301Z,101128.28
2023-01-06T22:07:46.656Z,101131.31
2023-01-06T22:11:48.738Z,101124.44
2023-01-06T22:15:50.766Z,101123.72
2023-01-06T22:19:54.394Z,101126.34
2023-01-06T22:23:57.073Z,101131.53
2023-01-06T22:27:58.753Z,101115.56
2023-01-06T22:32:04.587Z,101117.25
2023-01-06T22:36:07.084Z,101126.59
2023-01-06T22:40:10.294Z,101118.13
2023-01-06T22:44:11.905Z,101121.41
2023-01-06T22:48:13.439Z,101128.03
2023-01-06T22:52:16.225Z,101125.31
2023-01-06T22:56:17.826Z,101129.59
2023-01-06T23:00:19.471Z,101115.00
2023-01-06T23:04:21.021Z,101119.47
2023-01-06T23:08:22.898Z,101120.47
2023-01-06T23:12:24.457Z,101110.03
2023-01-06T23:16:26.868Z,101129.97
2023-01-06T23:20:28.867Z,101125.72
2023-01-06T23:24:30.426Z,101120.56
2023-01-06T23:28:32.501Z,101121.41
2023-01-06T23:32:34.140Z,101123.13
2023-01-06T23:36:36.944Z,101126.53
2023-01-06T23:40:38.655Z,101121.34
2023-01-06T23:44:40.234Z,101115.28
2023-01-06T23:48:42.581Z,101108.34
2023-01-06T23:52:44.128Z,101104.00
2023-01-06T23:56:45.681Z,101106.53
